sensor_id;sensor_type;location;lat;lon;timestamp;temperature;humidity
34153;DHT22;20426;48.372;10.888;2023-02-11T00:00:11;-0.40;99.90
34153;DHT22;20426;48.372;10.888;2023-02-11T00:00:42;-0.40;99.90
34153;DHT22;20426;48.372;10.888;2023-02-11T00:01:25;-0.50;99.90
34153;DHT22;20426;48.372;10.888;2023-02-11T00:01:56;-0.50;99.90
34153;DHT22;20426;48.372;10.888;2023-02-11T00:02:27;-0.50;99.90
34153;DHT22;20426;48.372;10.888;2023-02-11T00:02:59;-0.50;99.90
34153;DHT22;20426;48.372;10.888;2023-02-11T00:03:29;-0.50;99.90
34153;DHT22;20426;48.372;10.888;2023-02-11T00:04:01;-0.50;99.90
34153;DHT22;20426;48.372;10.888;2023-02-11T00:04:32;-0.50;99.90
34153;DHT22;20426;48.372;10.888;2023-02-11T00:05:03;-0.50;99.90
34153;DHT22;20426;48.372;10.888;2023-02-11T00:05:34;-0.50;99.90
34153;DHT22;20426;48.372;10.888;2023-02-11T00:06:06;-0.40;99.90
34153;DHT22;20426;48.372;10.888;2023-02-11T00:06:40;-0.40;99.90
34153;DHT22;20426;48.372;10.888;2023-02-11T00:07:11;-0.40;99.90
34153;DHT22;20426;48.372;10.888;2023-02-11T00:07:42;-0.40;99.90
34153;DHT22;20426;48.372;10.888;2023-02-11T00:08:12;-0.40;99.90
34153;DHT22;20426;48.372;10.888;2023-02-11T00:08:47;-0.40;99.90
34153;DHT22;20426;48.372;10.888;2023-02-11T00:09:18;-0.40;99.90
34153;DHT22;20426;48.372;10.888;2023-02-11T00:09:49;-0.40;99.90
34153;DHT22;20426;48.372;10.888;2023-02-11T00:10:19;-0.40;99.90
34153;DHT22;20426;48.372;10.888;2023-02-11T00:10:55;-0.40;99.90
34153;DHT22;20426;48.372;10.888;2023-02-11T00:11:27;-0.40;99.90
34153;DHT22;20426;48.372;10.888;2023-02-11T00:12:01;-0.40;99.90
34153;DHT22;20426;48.372;10.888;2023-02-11T00:12:32;-0.40;99.90
34153;DHT22;20426;48.372;10.888;2023-02-11T00:13:03;-0.40;99.90
34153;DHT22;20426;48.372;10.888;2023-02-11T00:13:33;-0.40;99.90
34153;DHT22;20426;48.372;10.888;2023-02-11T00:14:05;-0.40;99.90
34153;DHT22;20426;48.372;10.888;2023-02-11T00:14:37;-0.40;99.90
34153;DHT22;20426;48.372;10.888;2023-02-11T00:15:09;-0.40;99.90
34153;DHT22;20426;48.372;10.888;2023-02-11T00:15:39;-0.40;99.90
34153;DHT22;20426;48.372;10.888;2023-02-11T00:16:47;-0.40;99.90
34153;DHT22;20426;48.372;10.888;2023-02-11T00:17:18;-0.40;99.90
34153;DHT22;20426;48.372;10.888;2023-02-11T00:17:49;-0.40;99.90
34153;DHT22;20426;48.372;10.888;2023-02-11T00:18:21;-0.40;99.90
34153;DHT22;20426;48.372;10.888;2023-02-11T00:18:51;-0.40;99.90
34153;DHT22;20426;48.372;10.888;2023-02-11T00:19:23;-0.40;99.90
34153;DHT22;20426;48.372;10.888;2023-02-11T00:19:54;-0.40;99.90
34153;DHT22;20426;48.372;10.888;2023-02-11T00:20:24;-0.40;99.90
34153;DHT22;20426;48.372;10.888;2023-02-11T00:20:55;-0.40;99.90
34153;DHT22;20426;48.372;10.888;2023-02-11T00:21:26;-0.40;99.90
34153;DHT22;20426;48.372;10.888;2023-02-11T00:21:57;-0.40;99.90
34153;DHT22;20426;48.372;10.888;2023-02-11T00:22:28;-0.40;99.90
34153;DHT22;20426;48.372;10.888;2023-02-11T00:22:58;-0.40;99.90
34153;DHT22;20426;48.372;10.888;2023-02-11T00:23:30;-0.40;99.90
34153;DHT22;20426;48.372;10.888;2023-02-11T00:24:00;-0.40;99.90
34153;DHT22;20426;48.372;10.888;2023-02-11T00:24:31;-0.40;99.90
34153;DHT22;20426;48.372;10.888;2023-02-11T00:25:02;-0.40;99.90
34153;DHT22;20426;48.372;10.888;2023-02-11T00:25:37;-0.40;99.90
34153;DHT22;20426;48.372;10.888;2023-02-11T00:26:21;-0.40;99.90
34153;DHT22;20426;48.372;10.888;2023-02-11T00:26:52;-0.40;99.90
34153;DHT22;20426;48.372;10.888;2023-02-11T00:27:22;-0.40;99.90
34153;DHT22;20426;48.372;10.888;2023-02-11T00:27:53;-0.40;99.90
34153;DHT22;20426;48.372;10.888;2023-02-11T00:28:24;-0.50;99.90
34153;DHT22;20426;48.372;10.888;2023-02-11T00:28:54;-0.50;99.90
34153;DHT22;20426;48.372;10.888;2023-02-11T00:29:26;-0.50;99.90
34153;DHT22;20426;48.372;10.888;2023-02-11T00:29:57;-0.50;99.90
34153;DHT22;20426;48.372;10.888;2023-02-11T00:30:29;-0.50;99.90
34153;DHT22;20426;48.372;10.888;2023-02-11T00:31:00;-0.50;99.90
34153;DHT22;20426;48.372;10.888;2023-02-11T00:31:32;-0.50;99.90
34153;DHT22;20426;48.372;10.888;2023-02-11T00:32:04;-0.50;99.90
34153;DHT22;20426;48.372;10.888;2023-02-11T00:32:35;-0.50;99.90
34153;DHT22;20426;48.372;10.888;2023-02-11T00:33:06;-0.50;99.90
34153;DHT22;20426;48.372;10.888;2023-02-11T00:33:37;-0.40;99.90
34153;DHT22;20426;48.372;10.888;2023-02-11T00:34:07;-0.40;99.90
34153;DHT22;20426;48.372;10.888;2023-02-11T00:34:38;-0.40;99.90
34153;DHT22;20426;48.372;10.888;2023-02-11T00:35:09;-0.40;99.90
34153;DHT22;20426;48.372;10.888;2023-02-11T00:35:40;-0.40;99.90
34153;DHT22;20426;48.372;10.888;2023-02-11T00:36:16;-0.40;99.90
34153;DHT22;20426;48.372;10.888;2023-02-11T00:36:47;-0.40;99.90
34153;DHT22;20426;48.372;10.888;2023-02-11T00:37:18;-0.40;99.90
34153;DHT22;20426;48.372;10.888;2023-02-11T00:37:52;-0.40;99.90
34153;DHT22;20426;48.372;10.888;2023-02-11T00:38:23;-0.40;99.90
34153;DHT22;20426;48.372;10.888;2023-02-11T00:38:55;-0.40;99.90
34153;DHT22;20426;48.372;10.888;2023-02-11T00:39:26;-0.40;99.90
34153;DHT22;20426;48.372;10.888;2023-02-11T00:39:57;-0.50;99.90
34153;DHT22;20426;48.372;10.888;2023-02-11T00:40:28;-0.50;99.90
34153;DHT22;20426;48.372;10.888;2023-02-11T00:40:59;-0.50;99.90
34153;DHT22;20426;48.372;10.888;2023-02-11T00:41:30;-0.50;99.90
34153;DHT22;20426;48.372;10.888;2023-02-11T00:42:01;-0.50;99.90
34153;DHT22;20426;48.372;10.888;2023-02-11T00:42:32;-0.50;99.90
34153;DHT22;20426;48.372;10.888;2023-02-11T00:43:05;-0.50;99.90
34153;DHT22;20426;48.372;10.888;2023-02-11T00:43:35;-0.60;99.90
34153;DHT22;20426;48.372;10.888;2023-02-11T00:44:06;-0.60;99.90
34153;DHT22;20426;48.372;10.888;2023-02-11T00:44:37;-0.60;99.90
34153;DHT22;20426;48.372;10.888;2023-02-11T00:45:08;-0.60;99.90
34153;DHT22;20426;48.372;10.888;2023-02-11T00:45:39;-0.60;99.90
34153;DHT22;20426;48.372;10.888;2023-02-11T00:46:10;-0.60;99.90
34153;DHT22;20426;48.372;10.888;2023-02-11T00:46:41;-0.60;99.90
34153;DHT22;20426;48.372;10.888;2023-02-11T00:47:12;-0.60;99.90
34153;DHT22;20426;48.372;10.888;2023-02-11T00:47:42;-0.60;99.90
34153;DHT22;20426;48.372;10.888;2023-02-11T00:48:13;-0.60;99.90
34153;DHT22;20426;48.372;10.888;2023-02-11T00:48:44;-0.60;99.90
34153;DHT22;20426;48.372;10.888;2023-02-11T00:49:15;-0.70;99.90
34153;DHT22;20426;48.372;10.888;2023-02-11T00:49:45;-0.70;99.90
34153;DHT22;20426;48.372;10.888;2023-02-11T00:50:16;-0.70;99.90
34153;DHT22;20426;48.372;10.888;2023-02-11T00:50:47;-0.70;99.90
34153;DHT22;20426;48.372;10.888;2023-02-11T00:51:18;-0.70;99.90
34153;DHT22;20426;48.372;10.888;2023-02-11T00:51:48;-0.70;99.90
34153;DHT22;20426;48.372;10.888;2023-02-11T00:52:19;-0.70;99.90
34153;DHT22;20426;48.372;10.888;2023-02-11T00:52:50;-0.70;99.90
34153;DHT22;20426;48.372;10.888;2023-02-11T00:53:20;-0.70;99.90
34153;DHT22;20426;48.372;10.888;2023-02-11T00:53:51;-0.70;99.90
34153;DHT22;20426;48.372;10.888;2023-02-11T00:54:22;-0.70;99.90
34153;DHT22;20426;48.372;10.888;2023-02-11T00:54:53;-0.70;99.90
34153;DHT22;20426;48.372;10.888;2023-02-11T00:55:23;-0.70;99.90
34153;DHT22;20426;48.372;10.888;2023-02-11T00:55:54;-0.70;99.90
34153;DHT22;20426;48.372;10.888;2023-02-11T00:56:26;-0.70;99.90
34153;DHT22;20426;48.372;10.888;2023-02-11T00:56:56;-0.80;99.90
34153;DHT22;20426;48.372;10.888;2023-02-11T00:57:27;-0.80;99.90
34153;DHT22;20426;48.372;10.888;2023-02-11T00:57:58;-0.80;99.90
34153;DHT22;20426;48.372;10.888;2023-02-11T00:58:29;-0.80;99.90
34153;DHT22;20426;48.372;10.888;2023-02-11T00:59:00;-0.80;99.90
34153;DHT22;20426;48.372;10.888;2023-02-11T00:59:31;-0.80;99.90
34153;DHT22;20426;48.372;10.888;2023-02-11T01:00:04;-0.80;99.90
34153;DHT22;20426;48.372;10.888;2023-02-11T01:00:35;-0.80;99.90
34153;DHT22;20426;48.372;10.888;2023-02-11T01:01:05;-0.80;99.90
34153;DHT22;20426;48.372;10.888;2023-02-11T01:01:37;-0.80;99.90
34153;DHT22;20426;48.372;10.888;2023-02-11T01:02:08;-0.80;99.90
34153;DHT22;20426;48.372;10.888;2023-02-11T01:02:38;-0.80;99.90
34153;DHT22;20426;48.372;10.888;2023-02-11T01:03:09;-0.80;99.90
34153;DHT22;20426;48.372;10.888;2023-02-11T01:03:40;-0.80;99.90
34153;DHT22;20426;48.372;10.888;2023-02-11T01:04:10;-0.80;99.90
34153;DHT22;20426;48.372;10.888;2023-02-11T01:04:42;-0.80;99.90
34153;DHT22;20426;48.372;10.888;2023-02-11T01:05:12;-0.80;99.90
34153;DHT22;20426;48.372;10.888;2023-02-11T01:05:43;-0.80;99.90
34153;DHT22;20426;48.372;10.888;2023-02-11T01:06:14;-0.80;99.90
34153;DHT22;20426;48.372;10.888;2023-02-11T01:06:45;-0.80;99.90
34153;DHT22;20426;48.372;10.888;2023-02-11T01:07:16;-0.90;99.90
34153;DHT22;20426;48.372;10.888;2023-02-11T01:07:47;-0.90;99.90
34153;DHT22;20426;48.372;10.888;2023-02-11T01:08:18;-0.90;99.90
34153;DHT22;20426;48.372;10.888;2023-02-11T01:08:49;-0.90;99.90
34153;DHT22;20426;48.372;10.888;2023-02-11T01:09:20;-0.90;99.90
34153;DHT22;20426;48.372;10.888;2023-02-11T01:09:50;-0.90;99.90
34153;DHT22;20426;48.372;10.888;2023-02-11T01:10:21;-0.90;99.90
34153;DHT22;20426;48.372;10.888;2023-02-11T01:11:25;-0.80;99.90
34153;DHT22;20426;48.372;10.888;2023-02-11T01:11:56;-0.80;99.90
34153;DHT22;20426;48.372;10.888;2023-02-11T01:12:27;-0.80;99.90
34153;DHT22;20426;48.372;10.888;2023-02-11T01:12:58;-0.80;99.90
34153;DHT22;20426;48.372;10.888;2023-02-11T01:13:31;-0.80;99.90
34153;DHT22;20426;48.372;10.888;2023-02-11T01:14:02;-0.80;99.90
34153;DHT22;20426;48.372;10.888;2023-02-11T01:14:33;-0.80;99.90
34153;DHT22;20426;48.372;10.888;2023-02-11T01:15:05;-0.80;99.90
34153;DHT22;20426;48.372;10.888;2023-02-11T01:15:36;-0.80;99.90
34153;DHT22;20426;48.372;10.888;2023-02-11T01:16:08;-0.80;99.90
34153;DHT22;20426;48.372;10.888;2023-02-11T01:16:40;-0.80;99.90
34153;DHT22;20426;48.372;10.888;2023-02-11T01:17:11;-0.80;99.90
34153;DHT22;20426;48.372;10.888;2023-02-11T01:17:41;-0.80;99.90
34153;DHT22;20426;48.372;10.888;2023-02-11T01:18:12;-0.80;99.90
34153;DHT22;20426;48.372;10.888;2023-02-11T01:18:43;-0.80;99.90
34153;DHT22;20426;48.372;10.888;2023-02-11T01:19:14;-0.90;99.90
34153;DHT22;20426;48.372;10.888;2023-02-11T01:19:45;-0.90;99.90
34153;DHT22;20426;48.372;10.888;2023-02-11T01:20:20;-0.90;99.90
34153;DHT22;20426;48.372;10.888;2023-02-11T01:20:51;-0.90;99.90
34153;DHT22;20426;48.372;10.888;2023-02-11T01:21:22;-0.90;99.90
34153;DHT22;20426;48.372;10.888;2023-02-11T01:21:53;-0.90;99.90
34153;DHT22;20426;48.372;10.888;2023-02-11T01:22:23;-0.90;99.90
34153;DHT22;20426;48.372;10.888;2023-02-11T01:22:54;-0.90;99.90
34153;DHT22;20426;48.372;10.888;2023-02-11T01:23:25;-0.90;99.90
34153;DHT22;20426;48.372;10.888;2023-02-11T01:23:56;-0.90;99.90
34153;DHT22;20426;48.372;10.888;2023-02-11T01:24:27;-0.90;99.90
34153;DHT22;20426;48.372;10.888;2023-02-11T01:24:58;-0.90;99.90
34153;DHT22;20426;48.372;10.888;2023-02-11T01:25:29;-0.90;99.90
34153;DHT22;20426;48.372;10.888;2023-02-11T01:25:59;-0.90;99.90
34153;DHT22;20426;48.372;10.888;2023-02-11T01:26:30;-0.90;99.90
34153;DHT22;20426;48.372;10.888;2023-02-11T01:27:01;-0.90;99.90
34153;DHT22;20426;48.372;10.888;2023-02-11T01:27:32;-0.90;99.90
34153;DHT22;20426;48.372;10.888;2023-02-11T01:28:03;-0.90;99.90
34153;DHT22;20426;48.372;10.888;2023-02-11T01:28:34;-0.90;99.90
34153;DHT22;20426;48.372;10.888;2023-02-11T01:29:04;-0.90;99.90
34153;DHT22;20426;48.372;10.888;2023-02-11T01:29:35;-0.90;99.90
34153;DHT22;20426;48.372;10.888;2023-02-11T01:30:07;-0.90;99.90
34153;DHT22;20426;48.372;10.888;2023-02-11T01:30:41;-0.90;99.90
34153;DHT22;20426;48.372;10.888;2023-02-11T01:31:12;-1.00;99.90
34153;DHT22;20426;48.372;10.888;2023-02-11T01:31:42;-1.00;99.90
34153;DHT22;20426;48.372;10.888;2023-02-11T01:32:13;-1.00;99.90
34153;DHT22;20426;48.372;10.888;2023-02-11T01:32:44;-1.00;99.90
34153;DHT22;20426;48.372;10.888;2023-02-11T01:33:15;-1.00;99.90
34153;DHT22;20426;48.372;10.888;2023-02-11T01:33:46;-1.00;99.90
34153;DHT22;20426;48.372;10.888;2023-02-11T01:34:16;-1.00;99.90
34153;DHT22;20426;48.372;10.888;2023-02-11T01:34:47;-1.00;99.90
34153;DHT22;20426;48.372;10.888;2023-02-11T01:35:18;-1.00;99.90
34153;DHT22;20426;48.372;10.888;2023-02-11T01:35:49;-1.00;99.90
34153;DHT22;20426;48.372;10.888;2023-02-11T01:36:20;-1.00;99.90
34153;DHT22;20426;48.372;10.888;2023-02-11T01:36:56;-1.00;99.90
34153;DHT22;20426;48.372;10.888;2023-02-11T01:37:27;-1.00;99.90
34153;DHT22;20426;48.372;10.888;2023-02-11T01:37:58;-1.00;99.90
34153;DHT22;20426;48.372;10.888;2023-02-11T01:38:29;-1.00;99.90
34153;DHT22;20426;48.372;10.888;2023-02-11T01:38:59;-1.00;99.90
34153;DHT22;20426;48.372;10.888;2023-02-11T01:39:32;-1.00;99.90
34153;DHT22;20426;48.372;10.888;2023-02-11T01:40:06;-1.00;99.90
34153;DHT22;20426;48.372;10.888;2023-02-11T01:40:37;-1.00;99.90
34153;DHT22;20426;48.372;10.888;2023-02-11T01:41:11;-1.00;99.90
34153;DHT22;20426;48.372;10.888;2023-02-11T01:41:42;-1.00;99.90
34153;DHT22;20426;48.372;10.888;2023-02-11T01:42:21;-1.00;99.90
34153;DHT22;20426;48.372;10.888;2023-02-11T01:42:52;-1.00;99.90
34153;DHT22;20426;48.372;10.888;2023-02-11T01:43:25;-1.00;99.90
34153;DHT22;20426;48.372;10.888;2023-02-11T01:43:56;-1.00;99.90
34153;DHT22;20426;48.372;10.888;2023-02-11T01:44:37;-1.00;99.90
34153;DHT22;20426;48.372;10.888;2023-02-11T01:46:23;-1.00;99.90
34153;DHT22;20426;48.372;10.888;2023-02-11T01:46:57;-1.00;99.90
34153;DHT22;20426;48.372;10.888;2023-02-11T01:47:28;-1.00;99.90
34153;DHT22;20426;48.372;10.888;2023-02-11T01:47:59;-1.00;99.90
34153;DHT22;20426;48.372;10.888;2023-02-11T01:48:36;-1.00;99.90
34153;DHT22;20426;48.372;10.888;2023-02-11T01:49:10;-1.00;99.90
34153;DHT22;20426;48.372;10.888;2023-02-11T01:49:48;-1.10;99.90
34153;DHT22;20426;48.372;10.888;2023-02-11T01:50:19;-1.10;99.90
34153;DHT22;20426;48.372;10.888;2023-02-11T01:50:53;-1.10;99.90
34153;DHT22;20426;48.372;10.888;2023-02-11T01:51:31;-1.10;99.90
34153;DHT22;20426;48.372;10.888;2023-02-11T01:52:09;-1.20;99.90
34153;DHT22;20426;48.372;10.888;2023-02-11T01:52:42;-1.20;99.90
34153;DHT22;20426;48.372;10.888;2023-02-11T01:53:16;-1.20;99.90
34153;DHT22;20426;48.372;10.888;2023-02-11T01:54:20;-1.20;99.90
34153;DHT22;20426;48.372;10.888;2023-02-11T01:55:11;-1.20;99.90
34153;DHT22;20426;48.372;10.888;2023-02-11T01:56:02;-1.20;99.90
34153;DHT22;20426;48.372;10.888;2023-02-11T01:56:54;-1.20;99.90
34153;DHT22;20426;48.372;10.888;2023-02-11T01:57:48;-1.20;99.90
34153;DHT22;20426;48.372;10.888;2023-02-11T01:58:21;-1.20;99.90
34153;DHT22;20426;48.372;10.888;2023-02-11T01:58:55;-1.20;99.90
34153;DHT22;20426;48.372;10.888;2023-02-11T01:59:43;-1.30;99.90
34153;DHT22;20426;48.372;10.888;2023-02-11T02:00:52;-1.30;99.90
34153;DHT22;20426;48.372;10.888;2023-02-11T02:01:24;-1.30;99.90
34153;DHT22;20426;48.372;10.888;2023-02-11T02:01:59;-1.30;99.90
34153;DHT22;20426;48.372;10.888;2023-02-11T02:03:16;-1.30;99.90
34153;DHT22;20426;48.372;10.888;2023-02-11T02:03:51;-1.30;99.90
34153;DHT22;20426;48.372;10.888;2023-02-11T02:04:27;-1.30;99.90
34153;DHT22;20426;48.372;10.888;2023-02-11T02:05:18;-1.30;99.90
34153;DHT22;20426;48.372;10.888;2023-02-11T02:06:02;-1.20;99.90
34153;DHT22;20426;48.372;10.888;2023-02-11T02:06:49;-1.20;99.90
34153;DHT22;20426;48.372;10.888;2023-02-11T02:07:32;-1.20;99.90
34153;DHT22;20426;48.372;10.888;2023-02-11T02:09:07;-1.10;99.90
34153;DHT22;20426;48.372;10.888;2023-02-11T02:09:43;-1.10;99.90
34153;DHT22;20426;48.372;10.888;2023-02-11T02:10:19;-1.10;99.90
34153;DHT22;20426;48.372;10.888;2023-02-11T02:10:52;-1.10;99.90
34153;DHT22;20426;48.372;10.888;2023-02-11T02:11:25;-1.10;99.90
34153;DHT22;20426;48.372;10.888;2023-02-11T02:11:56;-1.10;99.90
34153;DHT22;20426;48.372;10.888;2023-02-11T02:12:27;-1.10;99.90
34153;DHT22;20426;48.372;10.888;2023-02-11T02:12:58;-1.10;99.90
34153;DHT22;20426;48.372;10.888;2023-02-11T02:13:30;-1.10;99.90
34153;DHT22;20426;48.372;10.888;2023-02-11T02:14:02;-1.10;99.90
34153;DHT22;20426;48.372;10.888;2023-02-11T02:14:36;-1.10;99.90
34153;DHT22;20426;48.372;10.888;2023-02-11T02:15:58;-1.10;99.90
34153;DHT22;20426;48.372;10.888;2023-02-11T02:16:34;-1.10;99.90
34153;DHT22;20426;48.372;10.888;2023-02-11T02:17:06;-1.10;99.90
34153;DHT22;20426;48.372;10.888;2023-02-11T02:18:08;-1.10;99.90
34153;DHT22;20426;48.372;10.888;2023-02-11T02:19:03;-1.10;99.90
34153;DHT22;20426;48.372;10.888;2023-02-11T02:20:23;-1.10;99.90
34153;DHT22;20426;48.372;10.888;2023-02-11T02:23:55;-1.10;99.90
34153;DHT22;20426;48.372;10.888;2023-02-11T02:25:51;-1.10;99.90
34153;DHT22;20426;48.372;10.888;2023-02-11T02:26:46;-1.10;99.90
34153;DHT22;20426;48.372;10.888;2023-02-11T02:34:01;-1.10;99.90
34153;DHT22;20426;48.372;10.888;2023-02-11T02:35:51;-1.20;99.90
34153;DHT22;20426;48.372;10.888;2023-02-11T02:36:31;-1.20;99.90
34153;DHT22;20426;48.372;10.888;2023-02-11T02:37:09;-1.20;99.90
34153;DHT22;20426;48.372;10.888;2023-02-11T02:38:45;-1.20;99.90
34153;DHT22;20426;48.372;10.888;2023-02-11T02:39:23;-1.20;99.90
34153;DHT22;20426;48.372;10.888;2023-02-11T02:39:56;-1.20;99.90
34153;DHT22;20426;48.372;10.888;2023-02-11T02:40:33;-1.10;99.90
34153;DHT22;20426;48.372;10.888;2023-02-11T02:41:39;-1.10;99.90
34153;DHT22;20426;48.372;10.888;2023-02-11T02:42:11;-1.10;99.90
34153;DHT22;20426;48.372;10.888;2023-02-11T02:42:43;-1.10;99.90
34153;DHT22;20426;48.372;10.888;2023-02-11T02:43:14;-1.10;99.90
34153;DHT22;20426;48.372;10.888;2023-02-11T02:43:48;-1.20;99.90
34153;DHT22;20426;48.372;10.888;2023-02-11T02:44:20;-1.10;99.90
34153;DHT22;20426;48.372;10.888;2023-02-11T02:44:52;-1.10;99.90
34153;DHT22;20426;48.372;10.888;2023-02-11T02:45:23;-1.10;99.90
34153;DHT22;20426;48.372;10.888;2023-02-11T02:45:54;-1.20;99.90
34153;DHT22;20426;48.372;10.888;2023-02-11T02:46:31;-1.20;99.90
34153;DHT22;20426;48.372;10.888;2023-02-11T02:47:02;-1.10;99.90
34153;DHT22;20426;48.372;10.888;2023-02-11T02:47:32;-1.10;99.90
34153;DHT22;20426;48.372;10.888;2023-02-11T02:48:03;-1.10;99.90
34153;DHT22;20426;48.372;10.888;2023-02-11T02:48:34;-1.10;99.90
34153;DHT22;20426;48.372;10.888;2023-02-11T02:49:13;-1.20;99.90
34153;DHT22;20426;48.372;10.888;2023-02-11T02:49:44;-1.20;99.90
34153;DHT22;20426;48.372;10.888;2023-02-11T02:50:19;-1.20;99.90
34153;DHT22;20426;48.372;10.888;2023-02-11T02:51:00;-1.20;99.90
34153;DHT22;20426;48.372;10.888;2023-02-11T02:51:56;-1.20;99.90
34153;DHT22;20426;48.372;10.888;2023-02-11T02:53:40;-1.20;99.90
34153;DHT22;20426;48.372;10.888;2023-02-11T02:56:03;-1.20;99.90
34153;DHT22;20426;48.372;10.888;2023-02-11T02:59:26;-1.30;99.90
34153;DHT22;20426;48.372;10.888;2023-02-11T03:00:16;-1.20;99.90
34153;DHT22;20426;48.372;10.888;2023-02-11T03:01:40;-1.20;99.90
34153;DHT22;20426;48.372;10.888;2023-02-11T03:02:21;-1.30;99.90
34153;DHT22;20426;48.372;10.888;2023-02-11T03:03:42;-1.30;99.90
34153;DHT22;20426;48.372;10.888;2023-02-11T03:05:27;-1.30;99.90
34153;DHT22;20426;48.372;10.888;2023-02-11T03:06:43;-1.40;99.90
34153;DHT22;20426;48.372;10.888;2023-02-11T03:09:06;-1.40;99.90
34153;DHT22;20426;48.372;10.888;2023-02-11T03:09:57;-1.40;99.90
34153;DHT22;20426;48.372;10.888;2023-02-11T03:10:33;-1.40;99.90
34153;DHT22;20426;48.372;10.888;2023-02-11T03:11:07;-1.50;99.90
34153;DHT22;20426;48.372;10.888;2023-02-11T03:11:39;-1.40;99.90
34153;DHT22;20426;48.372;10.888;2023-02-11T03:12:11;-1.40;99.90
34153;DHT22;20426;48.372;10.888;2023-02-11T03:12:43;-1.40;99.90
34153;DHT22;20426;48.372;10.888;2023-02-11T03:13:17;-1.40;99.90
34153;DHT22;20426;48.372;10.888;2023-02-11T03:13:50;-1.40;99.90
34153;DHT22;20426;48.372;10.888;2023-02-11T03:14:24;-1.40;99.90
34153;DHT22;20426;48.372;10.888;2023-02-11T03:14:57;-1.40;99.90
34153;DHT22;20426;48.372;10.888;2023-02-11T03:15:33;-1.40;99.90
34153;DHT22;20426;48.372;10.888;2023-02-11T03:16:10;-1.40;99.90
34153;DHT22;20426;48.372;10.888;2023-02-11T03:16:42;-1.40;99.90
34153;DHT22;20426;48.372;10.888;2023-02-11T03:17:15;-1.40;99.90
34153;DHT22;20426;48.372;10.888;2023-02-11T03:17:48;-1.40;99.90
34153;DHT22;20426;48.372;10.888;2023-02-11T03:18:24;-1.40;99.90
34153;DHT22;20426;48.372;10.888;2023-02-11T03:19:00;-1.40;99.90
34153;DHT22;20426;48.372;10.888;2023-02-11T03:19:38;-1.40;99.90
34153;DHT22;20426;48.372;10.888;2023-02-11T03:20:12;-1.40;99.90
34153;DHT22;20426;48.372;10.888;2023-02-11T03:20:46;-1.40;99.90
34153;DHT22;20426;48.372;10.888;2023-02-11T03:21:18;-1.50;99.90
34153;DHT22;20426;48.372;10.888;2023-02-11T03:21:50;-1.40;99.90
34153;DHT22;20426;48.372;10.888;2023-02-11T03:22:39;-1.50;99.90
34153;DHT22;20426;48.372;10.888;2023-02-11T03:23:15;-1.50;99.90
34153;DHT22;20426;48.372;10.888;2023-02-11T03:24:00;-1.50;99.90
34153;DHT22;20426;48.372;10.888;2023-02-11T03:24:34;-1.50;99.90
34153;DHT22;20426;48.372;10.888;2023-02-11T03:25:06;-1.40;99.90
34153;DHT22;20426;48.372;10.888;2023-02-11T03:25:44;-1.40;99.90
34153;DHT22;20426;48.372;10.888;2023-02-11T03:26:29;-1.40;99.90
34153;DHT22;20426;48.372;10.888;2023-02-11T03:27:11;-1.40;99.90
34153;DHT22;20426;48.372;10.888;2023-02-11T03:27:58;-1.40;99.90
34153;DHT22;20426;48.372;10.888;2023-02-11T03:30:16;-1.40;99.90
34153;DHT22;20426;48.372;10.888;2023-02-11T03:30:54;-1.40;99.90
34153;DHT22;20426;48.372;10.888;2023-02-11T03:31:44;-1.40;99.90
34153;DHT22;20426;48.372;10.888;2023-02-11T03:32:26;-1.40;99.90
34153;DHT22;20426;48.372;10.888;2023-02-11T03:33:10;-1.40;99.90
34153;DHT22;20426;48.372;10.888;2023-02-11T03:33:53;-1.40;99.90
34153;DHT22;20426;48.372;10.888;2023-02-11T03:35:14;-1.40;99.90
34153;DHT22;20426;48.372;10.888;2023-02-11T03:35:56;-1.40;99.90
34153;DHT22;20426;48.372;10.888;2023-02-11T03:36:43;-1.40;99.90
34153;DHT22;20426;48.372;10.888;2023-02-11T03:38:13;-1.40;99.90
34153;DHT22;20426;48.372;10.888;2023-02-11T03:38:50;-1.40;99.90
34153;DHT22;20426;48.372;10.888;2023-02-11T03:39:28;-1.50;99.90
34153;DHT22;20426;48.372;10.888;2023-02-11T03:40:16;-1.50;99.90
34153;DHT22;20426;48.372;10.888;2023-02-11T03:40:49;-1.50;99.90
34153;DHT22;20426;48.372;10.888;2023-02-11T03:41:22;-1.50;99.90
34153;DHT22;20426;48.372;10.888;2023-02-11T03:41:55;-1.50;99.90
34153;DHT22;20426;48.372;10.888;2023-02-11T03:42:32;-1.50;99.90
34153;DHT22;20426;48.372;10.888;2023-02-11T03:43:08;-1.50;99.90
34153;DHT22;20426;48.372;10.888;2023-02-11T03:43:45;-1.50;99.90
34153;DHT22;20426;48.372;10.888;2023-02-11T03:44:18;-1.40;99.90
34153;DHT22;20426;48.372;10.888;2023-02-11T03:44:54;-1.50;99.90
34153;DHT22;20426;48.372;10.888;2023-02-11T03:45:26;-1.40;99.90
34153;DHT22;20426;48.372;10.888;2023-02-11T03:45:58;-1.40;99.90
34153;DHT22;20426;48.372;10.888;2023-02-11T03:46:38;-1.40;99.90
34153;DHT22;20426;48.372;10.888;2023-02-11T03:47:11;-1.40;99.90
34153;DHT22;20426;48.372;10.888;2023-02-11T03:48:01;-1.50;99.90
34153;DHT22;20426;48.372;10.888;2023-02-11T03:48:37;-1.50;99.90
34153;DHT22;20426;48.372;10.888;2023-02-11T03:49:12;-1.50;99.90
34153;DHT22;20426;48.372;10.888;2023-02-11T03:49:47;-1.50;99.90
34153;DHT22;20426;48.372;10.888;2023-02-11T03:50:19;-1.50;99.90
34153;DHT22;20426;48.372;10.888;2023-02-11T03:50:53;-1.40;99.90
34153;DHT22;20426;48.372;10.888;2023-02-11T03:51:25;-1.40;99.90
34153;DHT22;20426;48.372;10.888;2023-02-11T03:52:00;-1.40;99.90
34153;DHT22;20426;48.372;10.888;2023-02-11T03:52:34;-1.40;99.90
34153;DHT22;20426;48.372;10.888;2023-02-11T03:53:07;-1.40;99.90
34153;DHT22;20426;48.372;10.888;2023-02-11T03:53:41;-1.40;99.90
34153;DHT22;20426;48.372;10.888;2023-02-11T03:54:17;-1.40;99.90
34153;DHT22;20426;48.372;10.888;2023-02-11T03:54:52;-1.40;99.90
34153;DHT22;20426;48.372;10.888;2023-02-11T03:55:25;-1.40;99.90
34153;DHT22;20426;48.372;10.888;2023-02-11T03:56:00;-1.40;99.90
34153;DHT22;20426;48.372;10.888;2023-02-11T03:56:37;-1.50;99.90
34153;DHT22;20426;48.372;10.888;2023-02-11T03:57:09;-1.50;99.90
34153;DHT22;20426;48.372;10.888;2023-02-11T03:57:40;-1.50;99.90
34153;DHT22;20426;48.372;10.888;2023-02-11T03:58:11;-1.50;99.90
34153;DHT22;20426;48.372;10.888;2023-02-11T03:58:44;-1.50;99.90
34153;DHT22;20426;48.372;10.888;2023-02-11T03:59:15;-1.50;99.90
34153;DHT22;20426;48.372;10.888;2023-02-11T04:00:20;-1.40;99.90
34153;DHT22;20426;48.372;10.888;2023-02-11T04:00:51;-1.40;99.90
34153;DHT22;20426;48.372;10.888;2023-02-11T04:01:22;-1.40;99.90
34153;DHT22;20426;48.372;10.888;2023-02-11T04:01:53;-1.40;99.90
34153;DHT22;20426;48.372;10.888;2023-02-11T04:02:27;-1.40;99.90
34153;DHT22;20426;48.372;10.888;2023-02-11T04:02:58;-1.40;99.90
34153;DHT22;20426;48.372;10.888;2023-02-11T04:03:29;-1.40;99.90
34153;DHT22;20426;48.372;10.888;2023-02-11T04:04:02;-1.40;99.90
34153;DHT22;20426;48.372;10.888;2023-02-11T04:04:33;-1.40;99.90
34153;DHT22;20426;48.372;10.888;2023-02-11T04:05:05;-1.40;99.90